Time;durP1;ratioP1;P1;durP2;ratioP2;P2;SDS_P1;SDS_P2;PMS_P1;PMS_P2;Temp;Humidity;BMP_temperature;BMP_pressure;BME280_temperature;BME280_humidity;BME280_pressure;Samples;Min_cycle;Max_cycle;Signal;HPM_P1;HPM_P2
2023/03/20 00:00:33;;;;;;;;;;;8.50;69.00;;;;;;5004427;28;87158;-39
2023/03/20 00:02:59;;;;;;;;;;;8.40;68.90;;;;;;5002552;28;89420;-39
2023/03/20 00:05:25;;;;;;;;;;;8.40;68.90;;;;;;5005064;28;88077;-38
2023/03/20 00:07:51;;;;;;;;;;;8.50;68.80;;;;;;5021443;28;87171;-39
2023/03/20 00:10:18;;;;;;;;;;;8.40;68.80;;;;;;5012058;28;88715;-39
2023/03/20 00:12:44;;;;;;;;;;;8.40;68.80;;;;;;5011462;28;87247;-39
2023/03/20 00:15:20;;;;;;;;;;;8.40;68.80;;;;;;5019876;28;88527;-38
2023/03/20 00:17:45;;;;;;;;;;;8.40;68.90;;;;;;5019076;28;90019;-38
2023/03/20 00:20:15;;;;;;;;;;;8.40;68.80;;;;;;5019739;28;87160;-38
2023/03/20 00:22:40;;;;;;;;;;;8.40;68.90;;;;;;5023130;28;89024;-38
2023/03/20 00:25:06;;;;;;;;;;;8.40;69.00;;;;;;5011493;28;87968;-39
2023/03/20 00:27:31;;;;;;;;;;;8.30;68.80;;;;;;5009765;28;88922;-38
2023/03/20 00:29:57;;;;;;;;;;;8.30;68.90;;;;;;5022151;28;88301;-38
2023/03/20 00:32:22;;;;;;;;;;;8.30;68.80;;;;;;5004804;28;87078;-39
2023/03/20 00:34:48;;;;;;;;;;;8.30;68.90;;;;;;5010952;28;89456;-39
2023/03/20 00:37:14;;;;;;;;;;;8.30;68.90;;;;;;5021398;28;89769;-38
2023/03/20 00:39:40;;;;;;;;;;;8.30;68.90;;;;;;5021176;28;87256;-39
2023/03/20 00:42:06;;;;;;;;;;;8.30;68.80;;;;;;5021225;28;88593;-38
2023/03/20 00:44:38;;;;;;;;;;;8.30;68.90;;;;;;5022765;28;88352;-38
2023/03/20 00:47:10;;;;;;;;;;;8.30;68.80;;;;;;5018788;28;88435;-38
2023/03/20 00:49:37;;;;;;;;;;;8.30;68.90;;;;;;5019800;28;89540;-38
2023/03/20 00:52:03;;;;;;;;;;;8.30;68.80;;;;;;5019359;28;87306;-38
2023/03/20 00:54:29;;;;;;;;;;;8.20;68.80;;;;;;5013311;28;87261;-38
2023/03/20 00:56:59;;;;;;;;;;;8.20;69.00;;;;;;5003912;28;89499;-38
2023/03/20 00:59:29;;;;;;;;;;;8.20;69.00;;;;;;5005197;28;86432;-38
2023/03/20 01:01:55;;;;;;;;;;;8.20;68.80;;;;;;5004233;28;88065;-39
2023/03/20 01:04:21;;;;;;;;;;;8.20;68.80;;;;;;5006928;28;89399;-39
2023/03/20 01:06:46;;;;;;;;;;;8.20;68.80;;;;;;5003750;28;88703;-38
2023/03/20 01:09:12;;;;;;;;;;;8.20;69.00;;;;;;5013065;28;89589;-38
2023/03/20 01:11:38;;;;;;;;;;;8.20;68.80;;;;;;5019537;28;87171;-38
2023/03/20 01:14:05;;;;;;;;;;;8.10;68.70;;;;;;5017496;28;88922;-39
2023/03/20 01:16:30;;;;;;;;;;;8.10;68.90;;;;;;5020078;28;88909;-38
2023/03/20 01:18:56;;;;;;;;;;;8.10;68.90;;;;;;5018356;28;87107;-39
2023/03/20 01:21:21;;;;;;;;;;;8.10;68.90;;;;;;5003985;28;88886;-38
2023/03/20 01:23:47;;;;;;;;;;;8.10;68.80;;;;;;5019652;28;88694;-39
2023/03/20 01:26:21;;;;;;;;;;;8.10;68.80;;;;;;5022416;28;87240;-39
2023/03/20 01:28:47;;;;;;;;;;;8.10;68.80;;;;;;5009023;28;88603;-38
2023/03/20 01:31:15;;;;;;;;;;;8.10;68.70;;;;;;5003207;28;88914;-39
2023/03/20 01:33:40;;;;;;;;;;;8.10;68.80;;;;;;5003887;28;88199;-38
2023/03/20 01:36:08;;;;;;;;;;;8.10;68.80;;;;;;5003594;28;89065;-39
2023/03/20 01:38:34;;;;;;;;;;;8.10;68.70;;;;;;5007075;28;87090;-39
2023/03/20 01:41:00;;;;;;;;;;;8.10;68.80;;;;;;5020502;28;88733;-39
2023/03/20 01:43:26;;;;;;;;;;;8.00;68.70;;;;;;5017892;28;89206;-39
2023/03/20 01:45:58;;;;;;;;;;;8.00;68.70;;;;;;5009129;28;87141;-38
2023/03/20 01:48:26;;;;;;;;;;;8.00;68.80;;;;;;5006437;28;88973;-39
2023/03/20 01:50:51;;;;;;;;;;;8.00;68.70;;;;;;5003390;28;87133;-38
2023/03/20 01:53:22;;;;;;;;;;;8.00;68.70;;;;;;5003302;28;89081;-39
2023/03/20 01:55:50;;;;;;;;;;;8.00;68.70;;;;;;5002594;28;88639;-38
2023/03/20 01:58:20;;;;;;;;;;;8.00;68.70;;;;;;5003569;28;87153;-39
2023/03/20 02:00:47;;;;;;;;;;;8.00;68.80;;;;;;5003694;28;90427;-39
2023/03/20 02:03:14;;;;;;;;;;;8.00;68.70;;;;;;5003069;28;89298;-38
2023/03/20 02:05:41;;;;;;;;;;;8.00;68.80;;;;;;5016194;28;87780;-38
2023/03/20 02:08:23;;;;;;;;;;;8.00;69.40;;;;;;5018683;28;88722;-38
2023/03/20 02:10:49;;;;;;;;;;;7.90;68.70;;;;;;5006550;28;89369;-38
2023/03/20 02:13:15;;;;;;;;;;;7.90;68.80;;;;;;5003779;28;87826;-38
2023/03/20 02:15:59;;;;;;;;;;;7.90;68.80;;;;;;5003162;28;88216;-38
2023/03/20 02:18:25;;;;;;;;;;;7.90;68.70;;;;;;5018113;28;87261;-38
2023/03/20 02:20:53;;;;;;;;;;;7.90;68.90;;;;;;5002696;28;88678;-38
2023/03/20 02:23:37;;;;;;;;;;;7.90;68.80;;;;;;5002744;28;88067;-38
2023/03/20 02:26:03;;;;;;;;;;;7.80;68.80;;;;;;5029519;27;87215;-38
2023/03/20 02:28:32;;;;;;;;;;;7.80;68.80;;;;;;5011650;28;88599;-38
2023/03/20 02:31:03;;;;;;;;;;;7.80;68.80;;;;;;5002753;28;89669;-39
2023/03/20 02:33:34;;;;;;;;;;;7.80;68.90;;;;;;5005723;28;87281;-39
2023/03/20 02:36:06;;;;;;;;;;;7.80;68.80;;;;;;5002857;28;89634;-38
2023/03/20 02:38:40;;;;;;;;;;;7.80;68.80;;;;;;5017545;28;86437;-38
2023/03/20 02:41:32;;;;;;;;;;;7.80;68.90;;;;;;5018910;28;88210;-39
2023/03/20 02:44:03;;;;;;;;;;;7.70;68.80;;;;;;5002504;28;89634;-38
2023/03/20 02:46:40;;;;;;;;;;;7.80;68.80;;;;;;5002571;28;88156;-38
2023/03/20 02:49:18;;;;;;;;;;;7.70;68.80;;;;;;5002717;28;89914;-38
2023/03/20 02:51:57;;;;;;;;;;;7.70;68.80;;;;;;5014041;28;88287;-38
2023/03/20 02:54:29;;;;;;;;;;;7.70;68.70;;;;;;5002775;28;87104;-38
2023/03/20 02:57:03;;;;;;;;;;;7.70;68.80;;;;;;5005066;28;88579;-39
2023/03/20 03:00:08;;;;;;;;;;;7.70;68.80;;;;;;5002248;28;87170;-38
2023/03/20 03:02:57;;;;;;;;;;;7.70;68.90;;;;;;4972427;28;88962;-38
2023/03/20 03:05:24;;;;;;;;;;;7.70;69.00;;;;;;4975744;28;87420;-39
2023/03/20 03:07:51;;;;;;;;;;;7.70;68.80;;;;;;5000753;28;87897;-38
2023/03/20 03:10:20;;;;;;;;;;;7.60;68.80;;;;;;5016219;28;87702;-38
2023/03/20 03:12:47;;;;;;;;;;;7.60;68.80;;;;;;5002059;28;89813;-38
2023/03/20 03:15:15;;;;;;;;;;;7.60;68.90;;;;;;5005199;28;87936;-38
2023/03/20 03:17:43;;;;;;;;;;;7.60;68.80;;;;;;5019581;28;88866;-39
2023/03/20 03:20:13;;;;;;;;;;;7.60;68.90;;;;;;5002481;28;87183;-39
2023/03/20 03:22:39;;;;;;;;;;;7.50;68.90;;;;;;5017149;28;88673;-38
2023/03/20 03:25:05;;;;;;;;;;;7.50;68.90;;;;;;5010983;28;89534;-39
2023/03/20 03:27:35;;;;;;;;;;;7.50;68.90;;;;;;5010564;28;87315;-39
2023/03/20 03:30:04;;;;;;;;;;;7.50;68.90;;;;;;5002964;28;87473;-39
2023/03/20 03:32:34;;;;;;;;;;;7.50;68.90;;;;;;5005877;28;87227;-38
2023/03/20 03:35:02;;;;;;;;;;;7.50;68.90;;;;;;5002026;28;87089;-39
2023/03/20 03:37:27;;;;;;;;;;;7.50;68.90;;;;;;5002182;28;87913;-39
2023/03/20 03:40:05;;;;;;;;;;;7.50;68.90;;;;;;5008331;28;87642;-39
2023/03/20 03:43:03;;;;;;;;;;;7.50;68.80;;;;;;5021561;28;87370;-38
2023/03/20 03:45:40;;;;;;;;;;;7.50;68.90;;;;;;4997093;28;89500;-39
2023/03/20 03:48:08;;;;;;;;;;;7.50;69.00;;;;;;5013263;28;87954;-39
2023/03/20 03:50:39;;;;;;;;;;;7.50;68.90;;;;;;5020810;28;88090;-38
2023/03/20 03:53:09;;;;;;;;;;;7.40;69.00;;;;;;5011648;28;87933;-39
2023/03/20 03:55:38;;;;;;;;;;;7.40;68.70;;;;;;5006730;28;86389;-39
2023/03/20 03:58:16;;;;;;;;;;;7.40;69.50;;;;;;5020345;28;87867;-39
2023/03/20 04:00:43;;;;;;;;;;;7.40;68.80;;;;;;5021986;28;89281;-39
2023/03/20 04:03:09;;;;;;;;;;;7.40;68.80;;;;;;5024898;28;88379;-38
2023/03/20 04:05:35;;;;;;;;;;;7.40;68.90;;;;;;5022140;28;87172;-38
2023/03/20 04:08:02;;;;;;;;;;;7.40;68.90;;;;;;5012357;28;87166;-38
2023/03/20 04:10:28;;;;;;;;;;;7.30;68.90;;;;;;5005111;28;87939;-38
2023/03/20 04:12:53;;;;;;;;;;;7.30;68.90;;;;;;5004681;28;89351;-38
2023/03/20 04:15:20;;;;;;;;;;;7.30;69.00;;;;;;5004904;28;87068;-38
2023/03/20 04:17:46;;;;;;;;;;;7.30;68.90;;;;;;5004925;28;87286;-38
2023/03/20 04:20:11;;;;;;;;;;;7.30;69.00;;;;;;5020435;28;87419;-38
2023/03/20 04:22:37;;;;;;;;;;;7.20;68.90;;;;;;5020856;28;87183;-38
2023/03/20 04:25:04;;;;;;;;;;;7.20;69.00;;;;;;5022752;28;88896;-39
2023/03/20 04:27:29;;;;;;;;;;;7.30;69.00;;;;;;5003676;28;87972;-39
2023/03/20 04:29:55;;;;;;;;;;;7.30;68.80;;;;;;5005324;28;90478;-38
2023/03/20 04:32:21;;;;;;;;;;;7.20;69.50;;;;;;5004426;28;89706;-38
2023/03/20 04:34:46;;;;;;;;;;;7.20;68.80;;;;;;5004806;28;87483;-38
2023/03/20 04:37:12;;;;;;;;;;;7.20;68.90;;;;;;5004478;28;88824;-38
2023/03/20 04:39:37;;;;;;;;;;;7.20;69.00;;;;;;5011385;28;89356;-38
2023/03/20 04:42:04;;;;;;;;;;;7.10;68.90;;;;;;5019336;28;87150;-38
2023/03/20 04:44:29;;;;;;;;;;;7.20;69.00;;;;;;5020737;28;88824;-38
2023/03/20 04:46:55;;;;;;;;;;;7.10;69.00;;;;;;5022607;28;88008;-38
2023/03/20 04:49:20;;;;;;;;;;;7.10;68.90;;;;;;5017663;28;88853;-38
2023/03/20 04:51:46;;;;;;;;;;;7.10;69.00;;;;;;5016786;28;90617;-38
2023/03/20 04:54:11;;;;;;;;;;;7.10;69.00;;;;;;5008050;28;87211;-38
2023/03/20 04:56:37;;;;;;;;;;;7.10;68.90;;;;;;5004493;28;88965;-38
2023/03/20 04:59:02;;;;;;;;;;;7.10;68.90;;;;;;5003915;28;89513;-38
2023/03/20 05:01:27;;;;;;;;;;;7.10;69.00;;;;;;5004338;28;87367;-38
2023/03/20 05:03:59;;;;;;;;;;;7.10;69.00;;;;;;5004399;28;87200;-39
2023/03/20 05:06:25;;;;;;;;;;;7.00;69.00;;;;;;5004091;28;88355;-39
2023/03/20 05:08:51;;;;;;;;;;;7.10;69.10;;;;;;5021222;28;86514;-38
2023/03/20 05:11:16;;;;;;;;;;;7.00;69.00;;;;;;5020542;28;87858;-38
2023/03/20 05:13:42;;;;;;;;;;;7.00;69.00;;;;;;5020517;28;86957;-38
2023/03/20 05:16:08;;;;;;;;;;;7.00;69.00;;;;;;5018330;28;88074;-39
2023/03/20 05:18:33;;;;;;;;;;;7.00;69.00;;;;;;5014439;28;89453;-38
2023/03/20 05:21:00;;;;;;;;;;;7.00;68.90;;;;;;5003965;28;87057;-38
2023/03/20 05:23:25;;;;;;;;;;;7.00;68.90;;;;;;5020198;28;88717;-38
2023/03/20 05:25:51;;;;;;;;;;;7.00;69.00;;;;;;5016835;28;88262;-38
2023/03/20 05:28:16;;;;;;;;;;;7.00;68.90;;;;;;5006314;28;87187;-38
2023/03/20 05:30:42;;;;;;;;;;;6.90;68.80;;;;;;5003401;28;89452;-38
2023/03/20 05:33:07;;;;;;;;;;;6.90;69.00;;;;;;5004298;28;86497;-38
2023/03/20 05:35:33;;;;;;;;;;;7.00;69.00;;;;;;5003833;28;88221;-38
2023/03/20 05:37:59;;;;;;;;;;;6.90;68.80;;;;;;5003333;28;89173;-38
2023/03/20 05:40:25;;;;;;;;;;;6.90;68.90;;;;;;5003121;28;88867;-39
2023/03/20 05:42:51;;;;;;;;;;;7.00;68.90;;;;;;5003971;28;88293;-38
2023/03/20 05:45:17;;;;;;;;;;;6.90;68.90;;;;;;5003106;28;89500;-38
2023/03/20 05:47:42;;;;;;;;;;;6.90;68.90;;;;;;5012189;28;87155;-38
2023/03/20 05:50:08;;;;;;;;;;;6.90;69.00;;;;;;5022428;28;89439;-45
2023/03/20 05:52:34;;;;;;;;;;;6.90;68.90;;;;;;5016909;28;87438;-39
2023/03/20 05:55:00;;;;;;;;;;;6.90;69.00;;;;;;5007598;28;88675;-39
2023/03/20 05:57:25;;;;;;;;;;;6.90;69.00;;;;;;5003737;28;88460;-38
2023/03/20 05:59:51;;;;;;;;;;;6.90;68.90;;;;;;5020103;28;87305;-38
2023/03/20 06:02:17;;;;;;;;;;;6.90;69.00;;;;;;5002973;28;88816;-38
2023/03/20 06:04:42;;;;;;;;;;;6.90;69.00;;;;;;5007255;28;90452;-38
2023/03/20 06:07:09;;;;;;;;;;;6.90;69.10;;;;;;5020593;28;87108;-38
2023/03/20 06:09:34;;;;;;;;;;;6.90;69.10;;;;;;5018859;28;88799;-38
2023/03/20 06:12:00;;;;;;;;;;;6.90;69.10;;;;;;5021831;28;89800;-38
2023/03/20 06:14:25;;;;;;;;;;;6.90;69.10;;;;;;5003161;28;88730;-38
2023/03/20 06:16:52;;;;;;;;;;;6.90;69.00;;;;;;5002762;28;89463;-38
2023/03/20 06:19:19;;;;;;;;;;;6.90;69.00;;;;;;5009529;28;87217;-38
2023/03/20 06:21:44;;;;;;;;;;;6.90;69.10;;;;;;5020929;28;88744;-38
2023/03/20 06:24:10;;;;;;;;;;;6.80;69.00;;;;;;5021621;28;89683;-38
2023/03/20 06:26:36;;;;;;;;;;;6.90;69.20;;;;;;5018999;28;87195;-38
2023/03/20 06:29:02;;;;;;;;;;;6.80;69.00;;;;;;5019438;28;87917;-38
2023/03/20 06:31:27;;;;;;;;;;;6.90;69.10;;;;;;5015938;28;91946;-38
2023/03/20 06:33:53;;;;;;;;;;;6.80;69.00;;;;;;5006102;28;88025;-38
2023/03/20 06:36:18;;;;;;;;;;;6.90;69.10;;;;;;5002475;28;90058;-38
2023/03/20 06:38:44;;;;;;;;;;;6.80;69.10;;;;;;5002842;28;87138;-38
2023/03/20 06:41:10;;;;;;;;;;;6.80;69.10;;;;;;5002811;28;88757;-39
2023/03/20 06:43:36;;;;;;;;;;;6.80;69.10;;;;;;5019040;28;88079;-39
2023/03/20 06:46:01;;;;;;;;;;;6.80;69.10;;;;;;5017793;28;86482;-38
2023/03/20 06:48:27;;;;;;;;;;;6.80;69.00;;;;;;5017997;28;88065;-38
2023/03/20 06:50:52;;;;;;;;;;;6.80;69.70;;;;;;5006029;28;89675;-38
2023/03/20 06:53:18;;;;;;;;;;;6.80;69.00;;;;;;5002221;28;88082;-38
2023/03/20 06:55:48;;;;;;;;;;;6.80;69.20;;;;;;5006566;28;89558;-38
2023/03/20 06:58:13;;;;;;;;;;;6.80;69.20;;;;;;5002443;28;87213;-38
2023/03/20 07:00:39;;;;;;;;;;;6.80;69.10;;;;;;5002530;28;88887;-38
2023/03/20 07:03:05;;;;;;;;;;;6.80;69.20;;;;;;5009519;28;89465;-39
2023/03/20 07:05:31;;;;;;;;;;;6.80;69.20;;;;;;5017007;28;87231;-38
2023/03/20 07:07:57;;;;;;;;;;;6.80;69.20;;;;;;5019076;28;87330;-38
2023/03/20 07:10:23;;;;;;;;;;;6.80;69.20;;;;;;5020814;28;89193;-38
2023/03/20 07:12:49;;;;;;;;;;;6.80;69.10;;;;;;5019865;28;87137;-39
2023/03/20 07:15:15;;;;;;;;;;;6.80;69.20;;;;;;5024664;28;88774;-38
2023/03/20 07:17:41;;;;;;;;;;;6.80;69.20;;;;;;5021948;28;88048;-38
2023/03/20 07:20:07;;;;;;;;;;;6.80;69.30;;;;;;5024421;28;89600;-38
2023/03/20 07:22:33;;;;;;;;;;;6.80;69.40;;;;;;5021624;28;89470;-38
2023/03/20 07:24:58;;;;;;;;;;;6.80;69.30;;;;;;5021501;28;87114;-39
2023/03/20 07:27:24;;;;;;;;;;;6.80;69.30;;;;;;5018946;28;88604;-38
2023/03/20 07:29:50;;;;;;;;;;;6.80;69.30;;;;;;5005803;28;88148;-38
2023/03/20 07:32:15;;;;;;;;;;;6.80;69.30;;;;;;5018313;28;87877;-38
2023/03/20 07:34:41;;;;;;;;;;;6.80;69.30;;;;;;5005921;28;88619;-38
2023/03/20 07:37:07;;;;;;;;;;;6.80;69.30;;;;;;5015731;28;88209;-38
2023/03/20 07:39:32;;;;;;;;;;;6.80;69.40;;;;;;5005434;28;88492;-38
2023/03/20 07:41:58;;;;;;;;;;;6.80;69.40;;;;;;5004612;28;89378;-39
2023/03/20 07:44:23;;;;;;;;;;;6.80;69.40;;;;;;5017562;28;87203;-38
2023/03/20 07:46:49;;;;;;;;;;;6.80;69.40;;;;;;5019215;28;88494;-38
2023/03/20 07:49:17;;;;;;;;;;;6.80;69.40;;;;;;5019971;28;89792;-38
2023/03/20 07:51:43;;;;;;;;;;;6.80;69.40;;;;;;5023303;28;87157;-39
2023/03/20 07:54:09;;;;;;;;;;;6.80;69.40;;;;;;5005600;28;87184;-38
2023/03/20 07:56:34;;;;;;;;;;;6.80;69.40;;;;;;5005269;28;88073;-38
2023/03/20 07:59:00;;;;;;;;;;;6.80;69.50;;;;;;5008797;28;87218;-39
2023/03/20 08:01:25;;;;;;;;;;;6.80;69.40;;;;;;5004999;28;88213;-39
2023/03/20 08:03:51;;;;;;;;;;;6.80;69.40;;;;;;5005243;28;87134;-39
2023/03/20 08:06:16;;;;;;;;;;;6.80;69.40;;;;;;5005083;28;88063;-39
2023/03/20 08:08:43;;;;;;;;;;;6.80;69.40;;;;;;5018326;28;88281;-39
2023/03/20 08:11:09;;;;;;;;;;;6.90;69.50;;;;;;5005242;28;87097;-38
2023/03/20 08:13:35;;;;;;;;;;;6.80;69.40;;;;;;5012693;28;88753;-38
2023/03/20 08:16:00;;;;;;;;;;;6.80;69.50;;;;;;5020125;28;88509;-39
2023/03/20 08:18:26;;;;;;;;;;;6.90;69.50;;;;;;5011785;28;87298;-38
2023/03/20 08:20:51;;;;;;;;;;;6.90;69.50;;;;;;5007849;28;87754;-38
2023/03/20 08:23:17;;;;;;;;;;;6.80;69.50;;;;;;5021016;28;86420;-38
2023/03/20 08:25:47;;;;;;;;;;;6.90;69.60;;;;;;5018421;28;88039;-38
2023/03/20 08:28:12;;;;;;;;;;;6.90;69.60;;;;;;5020571;28;89639;-39
2023/03/20 08:30:38;;;;;;;;;;;6.90;69.60;;;;;;5019950;28;88632;-38
2023/03/20 08:33:05;;;;;;;;;;;6.90;69.60;;;;;;5019570;28;87219;-38
2023/03/20 08:35:30;;;;;;;;;;;6.90;69.70;;;;;;5019983;28;89551;-38
2023/03/20 08:37:56;;;;;;;;;;;6.90;69.70;;;;;;5021430;28;87140;-38
2023/03/20 08:40:22;;;;;;;;;;;6.90;69.70;;;;;;5004718;28;88751;-38
2023/03/20 08:42:47;;;;;;;;;;;6.90;69.80;;;;;;5007465;28;89550;-38
2023/03/20 08:45:13;;;;;;;;;;;6.90;69.80;;;;;;5004848;28;88917;-38
2023/03/20 08:47:39;;;;;;;;;;;6.90;69.90;;;;;;5004669;28;88739;-38
2023/03/20 08:50:04;;;;;;;;;;;6.90;69.90;;;;;;5004412;28;87711;-38
2023/03/20 08:52:30;;;;;;;;;;;6.90;70.00;;;;;;5004492;28;87875;-38
2023/03/20 08:54:56;;;;;;;;;;;6.90;70.00;;;;;;5003526;28;90662;-38
2023/03/20 08:57:22;;;;;;;;;;;7.00;70.00;;;;;;5015140;28;88259;-38
2023/03/20 08:59:47;;;;;;;;;;;6.90;70.00;;;;;;5019678;28;87834;-38
2023/03/20 09:02:13;;;;;;;;;;;6.90;70.10;;;;;;5019521;28;88149;-38
2023/03/20 09:04:38;;;;;;;;;;;6.90;70.10;;;;;;5011747;28;87394;-39
2023/03/20 09:07:04;;;;;;;;;;;6.90;70.90;;;;;;5004531;28;88526;-38
2023/03/20 09:09:29;;;;;;;;;;;6.90;70.40;;;;;;5021216;28;87344;-38
2023/03/20 09:11:55;;;;;;;;;;;6.90;70.40;;;;;;5021215;28;89318;-38
2023/03/20 09:14:22;;;;;;;;;;;7.00;70.40;;;;;;5019201;28;89611;-38
2023/03/20 09:16:47;;;;;;;;;;;6.90;70.30;;;;;;5019498;28;87712;-38
2023/03/20 09:19:13;;;;;;;;;;;7.00;70.30;;;;;;5016949;28;88444;-38
2023/03/20 09:21:38;;;;;;;;;;;7.00;70.80;;;;;;5018255;28;89472;-38
2023/03/20 09:24:04;;;;;;;;;;;7.00;70.20;;;;;;5006828;28;87847;-38
2023/03/20 09:26:29;;;;;;;;;;;7.00;70.20;;;;;;5003621;28;88350;-38
2023/03/20 09:28:55;;;;;;;;;;;7.00;70.30;;;;;;5004810;28;87211;-38
2023/03/20 09:31:21;;;;;;;;;;;7.10;70.30;;;;;;5003671;28;88837;-38
2023/03/20 09:33:47;;;;;;;;;;;7.10;70.20;;;;;;5015458;28;88285;-38
2023/03/20 09:36:14;;;;;;;;;;;7.10;70.20;;;;;;5018586;28;86464;-38
2023/03/20 09:38:41;;;;;;;;;;;7.10;70.20;;;;;;5007389;28;88711;-39
2023/03/20 09:41:11;;;;;;;;;;;7.20;70.20;;;;;;5007029;28;89916;-38
2023/03/20 09:43:45;;;;;;;;;;;7.20;70.10;;;;;;5007310;28;88106;-39
2023/03/20 09:46:30;;;;;;;;;;;7.20;70.10;;;;;;5006558;28;90186;-38
2023/03/20 09:48:58;;;;;;;;;;;7.20;70.00;;;;;;5018097;28;87911;-38
2023/03/20 09:51:47;;;;;;;;;;;7.20;70.00;;;;;;5008808;28;88947;-39
2023/03/20 09:54:18;;;;;;;;;;;7.30;70.20;;;;;;5015711;28;89084;-39
2023/03/20 09:56:44;;;;;;;;;;;7.30;70.10;;;;;;5020388;28;87797;-38
2023/03/20 09:59:12;;;;;;;;;;;7.30;70.00;;;;;;5017122;28;88529;-38
2023/03/20 10:01:42;;;;;;;;;;;7.30;70.00;;;;;;5018133;28;88867;-38
2023/03/20 10:04:09;;;;;;;;;;;7.40;70.30;;;;;;5017544;28;87164;-38
2023/03/20 10:06:35;;;;;;;;;;;7.40;70.00;;;;;;5018738;28;88598;-38
2023/03/20 10:09:01;;;;;;;;;;;7.40;70.00;;;;;;5020656;28;90337;-39
2023/03/20 10:11:29;;;;;;;;;;;7.40;70.00;;;;;;5017913;28;89564;-39
2023/03/20 10:14:04;;;;;;;;;;;7.40;70.00;;;;;;5018353;28;88071;-39
2023/03/20 10:16:49;;;;;;;;;;;7.40;70.10;;;;;;5017446;28;87060;-38
2023/03/20 10:19:23;;;;;;;;;;;7.40;70.00;;;;;;5018873;28;87311;-39
2023/03/20 10:22:12;;;;;;;;;;;7.50;70.10;;;;;;5019437;28;89261;-38
2023/03/20 10:24:37;;;;;;;;;;;7.50;70.10;;;;;;4995782;28;87683;-38
2023/03/20 10:27:23;;;;;;;;;;;7.50;70.20;;;;;;5017548;28;88531;-39
2023/03/20 10:29:48;;;;;;;;;;;7.50;70.30;;;;;;5002681;28;89374;-38
2023/03/20 10:32:25;;;;;;;;;;;7.50;70.30;;;;;;5011143;28;87126;-38
2023/03/20 10:34:54;;;;;;;;;;;7.60;70.40;;;;;;5017760;28;88854;-38
2023/03/20 10:37:31;;;;;;;;;;;7.60;70.60;;;;;;5003296;28;87245;-38
2023/03/20 10:39:59;;;;;;;;;;;7.60;70.70;;;;;;5018706;28;89169;-38
2023/03/20 10:42:28;;;;;;;;;;;7.60;70.50;;;;;;5018731;28;89651;-39
2023/03/20 10:45:17;;;;;;;;;;;7.70;70.40;;;;;;5002960;28;87068;-39
2023/03/20 10:47:43;;;;;;;;;;;7.70;70.50;;;;;;5011169;28;89295;-38
2023/03/20 10:50:20;;;;;;;;;;;7.70;70.40;;;;;;5018765;28;90285;-38
2023/03/20 10:52:48;;;;;;;;;;;7.70;70.40;;;;;;5016776;28;86358;-38
2023/03/20 10:55:21;;;;;;;;;;;7.70;70.40;;;;;;5020720;28;88719;-38
2023/03/20 10:57:50;;;;;;;;;;;7.70;70.30;;;;;;5017832;28;87192;-39
2023/03/20 11:00:18;;;;;;;;;;;7.80;70.30;;;;;;5014218;28;88701;-38
2023/03/20 11:02:44;;;;;;;;;;;7.80;70.30;;;;;;5002157;28;89418;-38
2023/03/20 11:05:20;;;;;;;;;;;7.80;70.50;;;;;;5002733;28;87801;-38
2023/03/20 11:07:46;;;;;;;;;;;7.90;70.30;;;;;;5002606;28;88971;-38
2023/03/20 11:10:15;;;;;;;;;;;7.90;70.40;;;;;;5002182;28;89977;-38
2023/03/20 11:12:41;;;;;;;;;;;7.90;70.30;;;;;;5002393;28;87195;-38
2023/03/20 11:15:20;;;;;;;;;;;7.90;70.40;;;;;;5002280;28;89006;-38
2023/03/20 11:17:50;;;;;;;;;;;8.00;70.50;;;;;;5019471;28;88631;-38
2023/03/20 11:20:16;;;;;;;;;;;8.00;70.80;;;;;;5002320;28;88333;-38
2023/03/20 11:22:41;;;;;;;;;;;8.00;70.50;;;;;;5002151;28;87187;-39
2023/03/20 11:25:21;;;;;;;;;;;8.00;70.40;;;;;;5001583;28;88241;-39
2023/03/20 11:27:46;;;;;;;;;;;8.00;70.30;;;;;;5017074;28;88413;-38
2023/03/20 11:30:16;;;;;;;;;;;8.10;70.30;;;;;;5020321;28;88680;-38
2023/03/20 11:32:46;;;;;;;;;;;8.10;70.40;;;;;;5019670;28;87158;-38
2023/03/20 11:35:14;;;;;;;;;;;8.10;70.50;;;;;;5018912;28;89486;-39
2023/03/20 11:37:48;;;;;;;;;;;8.20;70.60;;;;;;5019121;28;89417;-38
2023/03/20 11:40:24;;;;;;;;;;;8.20;70.40;;;;;;5018739;28;87412;-38
2023/03/20 11:42:51;;;;;;;;;;;8.20;70.70;;;;;;5014785;28;90671;-38
2023/03/20 11:45:17;;;;;;;;;;;8.20;70.50;;;;;;5001742;28;87222;-38
2023/03/20 11:47:47;;;;;;;;;;;8.30;70.60;;;;;;5002135;28;88600;-39
2023/03/20 11:50:24;;;;;;;;;;;8.30;70.50;;;;;;5001184;28;90615;-38
2023/03/20 11:52:50;;;;;;;;;;;8.30;70.40;;;;;;5017718;28;87069;-39
2023/03/20 11:55:23;;;;;;;;;;;8.30;70.40;;;;;;5018453;28;89357;-39
2023/03/20 11:57:49;;;;;;;;;;;8.40;70.50;;;;;;5010302;28;89873;-39
2023/03/20 12:00:41;;;;;;;;;;;8.40;70.50;;;;;;5012342;28;87744;-39
2023/03/20 12:03:25;;;;;;;;;;;8.40;70.50;;;;;;5003460;28;89830;-39
2023/03/20 12:05:58;;;;;;;;;;;8.50;70.40;;;;;;5005121;28;87154;-38
2023/03/20 12:08:26;;;;;;;;;;;8.50;70.40;;;;;;5020440;28;88643;-38
2023/03/20 12:10:54;;;;;;;;;;;8.50;70.40;;;;;;5020974;28;88452;-39
2023/03/20 12:13:20;;;;;;;;;;;8.60;70.50;;;;;;5021780;28;87222;-38
2023/03/20 12:15:49;;;;;;;;;;;8.60;70.30;;;;;;5004526;28;88794;-39
2023/03/20 12:18:18;;;;;;;;;;;8.60;70.50;;;;;;5005898;28;89702;-39
2023/03/20 12:20:49;;;;;;;;;;;8.60;70.60;;;;;;5020546;28;87174;-39
2023/03/20 12:23:35;;;;;;;;;;;8.70;70.40;;;;;;5007466;28;88697;-38
2023/03/20 12:26:14;;;;;;;;;;;8.70;70.40;;;;;;5019582;28;87872;-39
2023/03/20 12:28:45;;;;;;;;;;;8.70;70.20;;;;;;5004421;28;89110;-38
2023/03/20 12:31:34;;;;;;;;;;;8.80;70.20;;;;;;5004317;28;88123;-38
2023/03/20 12:34:10;;;;;;;;;;;8.80;70.40;;;;;;5006627;28;87146;-38
2023/03/20 12:36:38;;;;;;;;;;;8.90;70.50;;;;;;5007313;28;87951;-38
2023/03/20 12:39:17;;;;;;;;;;;8.90;70.30;;;;;;5018540;28;89305;-39
2023/03/20 12:41:42;;;;;;;;;;;8.90;70.10;;;;;;5018311;28;88118;-38
2023/03/20 12:44:19;;;;;;;;;;;8.90;70.20;;;;;;5019565;28;88673;-39
2023/03/20 12:46:45;;;;;;;;;;;9.00;70.20;;;;;;5021826;28;88272;-38
2023/03/20 12:49:32;;;;;;;;;;;9.00;70.30;;;;;;5010755;28;88917;-38
2023/03/20 12:51:57;;;;;;;;;;;9.10;70.10;;;;;;5020214;28;88012;-39
2023/03/20 12:54:26;;;;;;;;;;;9.10;70.00;;;;;;5018462;28;87110;-39
2023/03/20 12:56:54;;;;;;;;;;;9.10;70.00;;;;;;5014509;28;87847;-38
2023/03/20 12:59:25;;;;;;;;;;;9.10;70.10;;;;;;5022473;28;88421;-39
2023/03/20 13:01:54;;;;;;;;;;;9.10;70.10;;;;;;5004539;28;87072;-38
2023/03/20 13:04:22;;;;;;;;;;;9.10;70.00;;;;;;5004242;28;88650;-38
2023/03/20 13:06:48;;;;;;;;;;;9.20;70.20;;;;;;5003580;28;89034;-38
2023/03/20 13:09:24;;;;;;;;;;;9.20;70.10;;;;;;5018189;28;87299;-39
2023/03/20 13:11:56;;;;;;;;;;;9.30;70.20;;;;;;5003020;28;89801;-39
2023/03/20 13:14:35;;;;;;;;;;;9.30;70.10;;;;;;5022486;28;87265;-38
2023/03/20 13:17:00;;;;;;;;;;;9.30;70.50;;;;;;5020325;28;88188;-38
2023/03/20 13:19:32;;;;;;;;;;;9.30;70.20;;;;;;5018501;28;89286;-39
2023/03/20 13:22:18;;;;;;;;;;;9.40;70.40;;;;;;5020655;28;87122;-38
2023/03/20 13:24:48;;;;;;;;;;;9.40;70.20;;;;;;5004276;28;88796;-38
2023/03/20 13:27:33;;;;;;;;;;;9.50;70.20;;;;;;5003018;28;89604;-39
2023/03/20 13:30:16;;;;;;;;;;;9.50;70.10;;;;;;5018081;28;87142;-39
2023/03/20 13:33:14;;;;;;;;;;;9.60;70.20;;;;;;5022392;28;88037;-38
2023/03/20 13:35:51;;;;;;;;;;;9.60;70.10;;;;;;4995265;28;87860;-38
2023/03/20 13:38:21;;;;;;;;;;;9.60;70.00;;;;;;5017833;28;88753;-39
2023/03/20 13:40:52;;;;;;;;;;;9.70;70.10;;;;;;5011389;28;88831;-39
2023/03/20 13:43:20;;;;;;;;;;;9.70;70.00;;;;;;5003523;28;87423;-38
2023/03/20 13:45:46;;;;;;;;;;;9.70;70.50;;;;;;5009171;28;89379;-38
2023/03/20 13:48:30;;;;;;;;;;;9.70;70.10;;;;;;5003816;28;89333;-39
2023/03/20 13:51:05;;;;;;;;;;;9.70;70.00;;;;;;5004046;28;87261;-38
2023/03/20 13:53:42;;;;;;;;;;;9.80;70.10;;;;;;5017052;28;87973;-39
2023/03/20 13:56:22;;;;;;;;;;;9.90;70.10;;;;;;5003826;28;87044;-39
2023/03/20 13:58:55;;;;;;;;;;;9.90;70.10;;;;;;5017345;28;88470;-39
2023/03/20 14:01:24;;;;;;;;;;;9.90;70.00;;;;;;5003368;28;89296;-38
2023/03/20 14:03:50;;;;;;;;;;;10.00;70.00;;;;;;5018663;28;87165;-39
2023/03/20 14:06:22;;;;;;;;;;;10.00;69.90;;;;;;5018493;28;87682;-38
2023/03/20 14:08:51;;;;;;;;;;;10.10;69.90;;;;;;5008270;28;89156;-39
2023/03/20 14:11:19;;;;;;;;;;;10.10;70.00;;;;;;5018517;28;87196;-39
2023/03/20 14:13:47;;;;;;;;;;;10.10;70.10;;;;;;5013098;28;88664;-39
2023/03/20 14:16:14;;;;;;;;;;;10.10;70.10;;;;;;5022536;28;89049;-39
2023/03/20 14:18:40;;;;;;;;;;;10.20;70.20;;;;;;5009515;28;88011;-39
2023/03/20 14:21:13;;;;;;;;;;;10.20;70.30;;;;;;5002715;28;88474;-39
2023/03/20 14:23:43;;;;;;;;;;;10.20;70.10;;;;;;5015817;28;88782;-39
2023/03/20 14:26:10;;;;;;;;;;;10.30;70.30;;;;;;5004127;28;89798;-38
2023/03/20 14:28:51;;;;;;;;;;;10.30;70.30;;;;;;5016713;28;90498;-38
2023/03/20 14:31:22;;;;;;;;;;;10.40;70.30;;;;;;5015549;28;87552;-38
2023/03/20 14:33:52;;;;;;;;;;;10.40;70.00;;;;;;5019250;28;87401;-39
2023/03/20 14:36:19;;;;;;;;;;;10.40;70.10;;;;;;5002528;28;89373;-38
2023/03/20 14:38:52;;;;;;;;;;;10.50;69.40;;;;;;5020032;28;87819;-39